Planet Ace — 3EYF9 — position and weather

sailwx.info

Track history (hours):
 
Tides and Currents Weather Stations Pressure Air Temp Water Temp Dewpoint Dewpoint Depression Visibility Wind Speed Wind Dir Waves Ship Positions

Planet Ace

Last reported at 2015-Jul-06 17:30 UTC. Time now 2015-Jul-06 17:49 UTC.
Position N 53°42' E 000°45'.

Length 188 m; beam 28.2 m.

Type: Cargo ship. MMSI: 352168000.

Date/timePositionNaut miles runAvg speedWind from/ knotsBaromVisibWave heightAir tempDewpointWater temp
2015-Jul-06 17:30N 53°42' E 000°45'1415.1
2015-Jul-06 16:33N 53°53' E 000°29'1514.6
2015-Jul-06 15:33N 54°04' E 000°13'1414.0
2015-Jul-06 14:34N 54°15' W 000°03'1413.7
2015-Jul-06 13:34N 54°25' W 000°18'1313.3
2015-Jul-06 12:33N 54°35' W 000°34'1413.8
2015-Jul-06 11:34N 54°45' W 000°50'1514.5
2015-Jul-06 10:30N 54°56' W 001°09'12 0.4
2015-Jul-05 05:16N 54°59' W 001°28'0 0.0
2015-Jul-05 04:19N 54°59' W 001°28'4 0.2
2015-Jul-04 09:33N 55°01' W 001°22'1211.8
2015-Jul-04 08:33N 54°54' W 001°06'1616.0
2015-Jul-04 07:33N 54°42' W 000°48'1514.8
2015-Jul-04 06:33N 54°31' W 000°31'1414.1
2015-Jul-04 05:33N 54°21' W 000°15'1413.8
2015-Jul-04 04:33N 54°10' E 000°01'1414.2
2015-Jul-04 03:33N 54°00' E 000°18'1515.0
2015-Jul-04 02:33N 53°49' E 000°35'1616.4
2015-Jul-04 01:34N 53°37' E 000°54'1716.7
2015-Jul-04 00:34N 53°23' E 001°08'1616.2
2015-Jul-03 23:33N 53°09' E 001°21'1514.8
2015-Jul-03 22:33N 52°56' E 001°35'1313.4
2015-Jul-03 21:33N 52°48' E 001°53'1211.9
2015-Jul-03 20:33N 52°39' E 002°04'1313.2
2015-Jul-03 19:33N 52°26' E 002°11'1514.9
2015-Jul-03 18:33N 52°12' E 002°19'1616.0
2015-Jul-03 17:33N 51°57' E 002°28'1615.7
2015-Jul-03 16:33N 51°44' E 002°43'1616.2
2015-Jul-03 15:33N 51°28' E 002°42'1010.0
2015-Jul-03 14:33N 51°23' E 002°56'1110.6
2015-Jul-03 13:34N 51°21' E 003°13'1 0.7
2015-Jul-03 12:33N 51°20' E 003°13'1 0.6
2015-Jul-03 11:31N 51°19' E 003°13'0 0.0
2015-Jul-03 10:31N 51°19' E 003°13'0 0.0
2015-Jul-03 09:31N 51°19' E 003°13'0 0.0
2015-Jul-03 08:31N 51°19' E 003°13'0 0.0
2015-Jul-03 07:31N 51°19' E 003°13'0 0.0
2015-Jul-03 06:31N 51°19' E 003°13'0 0.0
2015-Jul-03 05:31N 51°19' E 003°13'0 0.0
2015-Jul-03 04:31N 51°19' E 003°13'0 0.0
2015-Jul-03 03:31N 51°19' E 003°13'0 0.0
2015-Jul-03 02:28N 51°19' E 003°13'0 0.0
2015-Jul-03 01:31N 51°19' E 003°13'0 0.0
2015-Jul-03 00:31N 51°19' E 003°13'0 0.0
2015-Jul-02 23:31N 51°19' E 003°13'0 0.0
2015-Jul-02 22:31N 51°19' E 003°13'0 0.0
2015-Jul-02 21:04N 51°19' E 003°13'0 0.0
2015-Jul-02 20:31N 51°19' E 003°13'0 0.0
2015-Jul-02 19:31N 51°19' E 003°13'0 0.0
2015-Jul-02 18:22N 51°19' E 003°13'0 0.0
2015-Jul-02 17:31N 51°19' E 003°13'0 0.0
2015-Jul-02 16:31N 51°19' E 003°13'0 0.5
2015-Jul-02 15:33N 51°19' E 003°13'1 0.7
2015-Jul-02 14:33N 51°20' E 003°13'6 6.1
2015-Jul-02 13:33N 51°24' E 003°06'1313.1
2015-Jul-02 12:34N 51°21' E 002°45'7 6.7
2015-Jul-02 11:34N 51°22' E 002°34'5 5.0
2015-Jul-02 10:33N 51°21' E 002°26'7 7.1
2015-Jul-02 09:33N 51°18' E 002°16'6 6.3
2015-Jul-02 08:34N 51°14' E 002°08'1312.6
2015-Jul-02 07:34N 51°08' E 001°51'1212.3
2015-Jul-02 06:34N 51°00' E 001°35'1312.5
2015-Jul-02 05:33N 50°49' E 001°26'1313.3
2015-Jul-02 04:33N 50°38' E 001°15'4313.9
2015-Jul-02 01:27N 50°10' E 000°23'1314.4
2015-Jul-02 00:33N 49°59' E 000°15'1514.8
2015-Jul-01 23:33N 49°45' E 000°04'1414.0
2015-Jul-01 22:34N 49°32' E 000°01'7 7.0
2015-Jul-01 21:34N 49°29' E 000°10'1 1.1
2015-Jul-01 20:31N 49°28' E 000°12'0 0.0
2015-Jul-01 19:31N 49°28' E 000°12'0 0.0
2015-Jul-01 18:31N 49°28' E 000°12'0 0.0
2015-Jul-01 17:31N 49°28' E 000°12'0 0.0
2015-Jul-01 16:31N 49°28' E 000°12'0 0.0
2015-Jul-01 15:34N 49°28' E 000°12'0 0.0
2015-Jul-01 14:33N 49°28' E 000°12'0 0.0
2015-Jul-01 13:33N 49°28' E 000°12'0 0.0
2015-Jul-01 12:30N 49°28' E 000°12'0 0.0
2015-Jul-01 11:33N 49°28' E 000°12'0 0.0
2015-Jul-01 10:33N 49°28' E 000°12'0 0.0
2015-Jul-01 09:33N 49°28' E 000°12'0 0.0
2015-Jul-01 08:33N 49°28' E 000°12'0 0.0
2015-Jul-01 07:33N 49°28' E 000°12'0 0.0
2015-Jul-01 06:33N 49°28' E 000°12'0 0.0
2015-Jul-01 05:33N 49°28' E 000°12'0 0.0
2015-Jul-01 04:33N 49°28' E 000°12'0 0.0
2015-Jul-01 03:33N 49°28' E 000°12'0 0.0
2015-Jul-01 02:33N 49°28' E 000°12'0 0.0
2015-Jul-01 01:33N 49°28' E 000°12'0 0.0
2015-Jul-01 00:33N 49°28' E 000°12'0 0.0
2015-Jun-30 23:33N 49°28' E 000°12'0 0.0
2015-Jun-30 22:33N 49°28' E 000°12'0 0.1
2015-Jun-30 21:33N 49°28' E 000°12'2 1.8
2015-Jun-30 20:33N 49°28' E 000°09'9 9.2
2015-Jun-30 19:33N 49°31' W 000°04'7 6.5
2015-Jun-30 18:33N 49°32' W 000°14'4 3.7
2015-Jun-30 17:33N 49°32' W 000°20'2 1.8
2015-Jun-30 16:33N 49°33' W 000°22'8 7.5
2015-Jun-30 15:33N 49°38' W 000°31'7 7.4
2015-Jun-30 14:33N 49°41' W 000°41'2 2.4
2015-Jun-30 13:33N 49°40' W 000°38'2 2.2
2015-Jun-30 12:33N 49°39' W 000°35'1010.4
2015-Jun-30 11:33N 49°43' W 000°49'1010.1
2015-Jun-30 10:33N 49°47' W 001°04'10 9.8
2015-Jun-30 09:33N 49°51' W 001°18'1111.1
2015-Jun-30 08:33N 49°53' W 001°35'1312.8
2015-Jun-30 07:33N 49°53' W 001°54'1313.3
2015-Jun-30 06:34N 49°53' W 002°15'1717.0
2015-Jun-30 05:34N 49°50' W 002°41'1615.8
2015-Jun-30 04:34N 49°44' W 003°04'1715.6
2015-Jun-30 03:30N 49°36' W 003°26'1615.5
2015-Jun-30 02:27N 49°28' W 003°48'2915.2
2015-Jun-30 00:33N 49°14' W 004°26'1514.5
2015-Jun-29 23:32N 49°07' W 004°47'1514.3
2015-Jun-29 22:29N 49°00' W 005°07'1313.9
2015-Jun-29 21:33N 48°54' W 005°24'2613.0
2015-Jun-29 19:33N 48°34' W 005°49'1313.4
2015-Jun-29 18:33N 48°22' W 005°57'1413.9
2015-Jun-29 17:33N 48°09' W 006°07'1514.3
2015-Jun-29 16:31N 47°56' W 006°17'1414.6
2015-Jun-29 15:33N 47°43' W 006°26'21414.9
2015-Jun-29 01:11N 44°33' W 008°49'1114.9
2015-Jun-29 00:26N 44°23' W 008°56'1314.5
2015-Jun-28 23:33N 44°12' W 009°04'1514.8
2015-Jun-28 22:30N 43°58' W 009°14'4314.4
2015-Jun-28 19:31N 43°20' W 009°40'1413.9
2015-Jun-28 18:32N 43°07' W 009°47'1414.0
2015-Jun-28 17:33N 42°53' W 009°48'1413.8
2015-Jun-28 16:33N 42°39' W 009°48'1313.4
2015-Jun-28 15:33N 42°26' W 009°48'1413.8
2015-Jun-28 14:33N 42°12' W 009°48'1413.9
2015-Jun-28 13:33N 41°58' W 009°48'1414.1
2015-Jun-28 12:33N 41°44' W 009°49'1414.3
2015-Jun-28 11:34N 41°30' W 009°49'1414.3
2015-Jun-28 10:33N 41°16' W 009°49'1414.0
2015-Jun-28 09:33N 41°01' W 009°50'1414.1
2015-Jun-28 08:33N 40°47' W 009°50'1414.0
2015-Jun-28 07:33N 40°33' W 009°50'1514.8
2015-Jun-28 06:33N 40°19' W 009°51'1414.4
2015-Jun-28 05:33N 40°04' W 009°51'1414.1
2015-Jun-28 04:33N 39°50' W 009°50'1413.6
2015-Jun-28 03:33N 39°36' W 009°50'1514.4
2015-Jun-28 02:33N 39°22' W 009°51'1414.2
2015-Jun-28 01:33N 39°08' W 009°51'1414.1
2015-Jun-28 00:33N 38°54' W 009°51'1414.1
2015-Jun-27 23:34N 38°40' W 009°50'1413.8
2015-Jun-27 22:33N 38°26' W 009°45'1313.5
2015-Jun-27 21:33N 38°14' W 009°40'1313.3
2015-Jun-27 20:33N 38°01' W 009°36'1313.5
2015-Jun-27 19:34N 37°47' W 009°33'1414.0
2015-Jun-27 18:33N 37°34' W 009°29'1414.1
2015-Jun-27 17:33N 37°20' W 009°26'1414.2
2015-Jun-27 16:34N 37°06' W 009°22'1414.1
2015-Jun-27 15:34N 36°52' W 009°17'1414.2
2015-Jun-27 14:33N 36°43' W 009°04'1414.4
2015-Jun-27 13:33N 36°38' W 008°47'1414.5
2015-Jun-27 12:33N 36°33' W 008°30'1614.6
2015-Jun-27 11:26N 36°28' W 008°11'1415.0
2015-Jun-27 10:32N 36°23' W 007°55'11915.0
2015-Jun-27 02:33N 35°57' W 005°31'  
Track history (hours):
 
Tides and Currents Weather Stations Pressure Air Temp Water Temp Dewpoint Dewpoint Depression Visibility Wind Speed Wind Dir Waves Ship Positions

Planet Ace

Last reported at 2015-Jul-06 17:30 UTC. Time now 2015-Jul-06 17:49 UTC.
Position N 53°42' E 000°45'.

Length 188 m; beam 28.2 m.

Type: Cargo ship. MMSI: 352168000.

Date/timePositionNaut miles runAvg speedWind from/ knotsBaromVisibWave heightAir tempDewpointWater temp
2015-Jul-06 17:30N 53°42' E 000°45'1415.1
2015-Jul-06 16:33N 53°53' E 000°29'1514.6
2015-Jul-06 15:33N 54°04' E 000°13'1414.0
2015-Jul-06 14:34N 54°15' W 000°03'1413.7
2015-Jul-06 13:34N 54°25' W 000°18'1313.3
2015-Jul-06 12:33N 54°35' W 000°34'1413.8
2015-Jul-06 11:34N 54°45' W 000°50'1514.5
2015-Jul-06 10:30N 54°56' W 001°09'12 0.4
2015-Jul-05 05:16N 54°59' W 001°28'0 0.0
2015-Jul-05 04:19N 54°59' W 001°28'4 0.2
2015-Jul-04 09:33N 55°01' W 001°22'1211.8
2015-Jul-04 08:33N 54°54' W 001°06'1616.0
2015-Jul-04 07:33N 54°42' W 000°48'1514.8
2015-Jul-04 06:33N 54°31' W 000°31'1414.1
2015-Jul-04 05:33N 54°21' W 000°15'1413.8
2015-Jul-04 04:33N 54°10' E 000°01'1414.2
2015-Jul-04 03:33N 54°00' E 000°18'1515.0
2015-Jul-04 02:33N 53°49' E 000°35'1616.4
2015-Jul-04 01:34N 53°37' E 000°54'1716.7
2015-Jul-04 00:34N 53°23' E 001°08'1616.2
2015-Jul-03 23:33N 53°09' E 001°21'1514.8
2015-Jul-03 22:33N 52°56' E 001°35'1313.4
2015-Jul-03 21:33N 52°48' E 001°53'1211.9
2015-Jul-03 20:33N 52°39' E 002°04'1313.2
2015-Jul-03 19:33N 52°26' E 002°11'1514.9
2015-Jul-03 18:33N 52°12' E 002°19'1616.0
2015-Jul-03 17:33N 51°57' E 002°28'1615.7
2015-Jul-03 16:33N 51°44' E 002°43'1616.2
2015-Jul-03 15:33N 51°28' E 002°42'1010.0
2015-Jul-03 14:33N 51°23' E 002°56'1110.6
2015-Jul-03 13:34N 51°21' E 003°13'1 0.7
2015-Jul-03 12:33N 51°20' E 003°13'1 0.6
2015-Jul-03 11:31N 51°19' E 003°13'0 0.0
2015-Jul-03 10:31N 51°19' E 003°13'0 0.0
2015-Jul-03 09:31N 51°19' E 003°13'0 0.0
2015-Jul-03 08:31N 51°19' E 003°13'0 0.0
2015-Jul-03 07:31N 51°19' E 003°13'0 0.0
2015-Jul-03 06:31N 51°19' E 003°13'0 0.0
2015-Jul-03 05:31N 51°19' E 003°13'0 0.0
2015-Jul-03 04:31N 51°19' E 003°13'0 0.0
2015-Jul-03 03:31N 51°19' E 003°13'0 0.0
2015-Jul-03 02:28N 51°19' E 003°13'0 0.0
2015-Jul-03 01:31N 51°19' E 003°13'0 0.0
2015-Jul-03 00:31N 51°19' E 003°13'0 0.0
2015-Jul-02 23:31N 51°19' E 003°13'0 0.0
2015-Jul-02 22:31N 51°19' E 003°13'0 0.0
2015-Jul-02 21:04N 51°19' E 003°13'0 0.0
2015-Jul-02 20:31N 51°19' E 003°13'0 0.0
2015-Jul-02 19:31N 51°19' E 003°13'0 0.0
2015-Jul-02 18:22N 51°19' E 003°13'0 0.0
2015-Jul-02 17:31N 51°19' E 003°13'0 0.0
2015-Jul-02 16:31N 51°19' E 003°13'0 0.5
2015-Jul-02 15:33N 51°19' E 003°13'1 0.7
2015-Jul-02 14:33N 51°20' E 003°13'6 6.1
2015-Jul-02 13:33N 51°24' E 003°06'1313.1
2015-Jul-02 12:34N 51°21' E 002°45'7 6.7
2015-Jul-02 11:34N 51°22' E 002°34'5 5.0
2015-Jul-02 10:33N 51°21' E 002°26'7 7.1
2015-Jul-02 09:33N 51°18' E 002°16'6 6.3
2015-Jul-02 08:34N 51°14' E 002°08'1312.6
2015-Jul-02 07:34N 51°08' E 001°51'1212.3
2015-Jul-02 06:34N 51°00' E 001°35'1312.5
2015-Jul-02 05:33N 50°49' E 001°26'1313.3
2015-Jul-02 04:33N 50°38' E 001°15'4313.9
2015-Jul-02 01:27N 50°10' E 000°23'1314.4
2015-Jul-02 00:33N 49°59' E 000°15'1514.8
2015-Jul-01 23:33N 49°45' E 000°04'1414.0
2015-Jul-01 22:34N 49°32' E 000°01'7 7.0
2015-Jul-01 21:34N 49°29' E 000°10'1 1.1
2015-Jul-01 20:31N 49°28' E 000°12'0 0.0
2015-Jul-01 19:31N 49°28' E 000°12'0 0.0
2015-Jul-01 18:31N 49°28' E 000°12'0 0.0
2015-Jul-01 17:31N 49°28' E 000°12'0 0.0
2015-Jul-01 16:31N 49°28' E 000°12'0 0.0
2015-Jul-01 15:34N 49°28' E 000°12'0 0.0
2015-Jul-01 14:33N 49°28' E 000°12'0 0.0
2015-Jul-01 13:33N 49°28' E 000°12'0 0.0
2015-Jul-01 12:30N 49°28' E 000°12'0 0.0
2015-Jul-01 11:33N 49°28' E 000°12'0 0.0
2015-Jul-01 10:33N 49°28' E 000°12'0 0.0
2015-Jul-01 09:33N 49°28' E 000°12'0 0.0
2015-Jul-01 08:33N 49°28' E 000°12'0 0.0
2015-Jul-01 07:33N 49°28' E 000°12'0 0.0
2015-Jul-01 06:33N 49°28' E 000°12'0 0.0
2015-Jul-01 05:33N 49°28' E 000°12'0 0.0
2015-Jul-01 04:33N 49°28' E 000°12'0 0.0
2015-Jul-01 03:33N 49°28' E 000°12'0 0.0
2015-Jul-01 02:33N 49°28' E 000°12'0 0.0
2015-Jul-01 01:33N 49°28' E 000°12'0 0.0
2015-Jul-01 00:33N 49°28' E 000°12'0 0.0
2015-Jun-30 23:33N 49°28' E 000°12'0 0.0
2015-Jun-30 22:33N 49°28' E 000°12'0 0.1
2015-Jun-30 21:33N 49°28' E 000°12'2 1.8
2015-Jun-30 20:33N 49°28' E 000°09'9 9.2
2015-Jun-30 19:33N 49°31' W 000°04'7 6.5
2015-Jun-30 18:33N 49°32' W 000°14'4 3.7
2015-Jun-30 17:33N 49°32' W 000°20'2 1.8
2015-Jun-30 16:33N 49°33' W 000°22'8 7.5
2015-Jun-30 15:33N 49°38' W 000°31'7 7.4
2015-Jun-30 14:33N 49°41' W 000°41'2 2.4
2015-Jun-30 13:33N 49°40' W 000°38'2 2.2
2015-Jun-30 12:33N 49°39' W 000°35'1010.4
2015-Jun-30 11:33N 49°43' W 000°49'1010.1
2015-Jun-30 10:33N 49°47' W 001°04'10 9.8
2015-Jun-30 09:33N 49°51' W 001°18'1111.1
2015-Jun-30 08:33N 49°53' W 001°35'1312.8
2015-Jun-30 07:33N 49°53' W 001°54'1313.3
2015-Jun-30 06:34N 49°53' W 002°15'1717.0
2015-Jun-30 05:34N 49°50' W 002°41'1615.8
2015-Jun-30 04:34N 49°44' W 003°04'1715.6
2015-Jun-30 03:30N 49°36' W 003°26'1615.5
2015-Jun-30 02:27N 49°28' W 003°48'2915.2
2015-Jun-30 00:33N 49°14' W 004°26'1514.5
2015-Jun-29 23:32N 49°07' W 004°47'1514.3
2015-Jun-29 22:29N 49°00' W 005°07'1313.9
2015-Jun-29 21:33N 48°54' W 005°24'2613.0
2015-Jun-29 19:33N 48°34' W 005°49'1313.4
2015-Jun-29 18:33N 48°22' W 005°57'1413.9
2015-Jun-29 17:33N 48°09' W 006°07'1514.3
2015-Jun-29 16:31N 47°56' W 006°17'1414.6
2015-Jun-29 15:33N 47°43' W 006°26'21414.9
2015-Jun-29 01:11N 44°33' W 008°49'1114.9
2015-Jun-29 00:26N 44°23' W 008°56'1314.5
2015-Jun-28 23:33N 44°12' W 009°04'1514.8
2015-Jun-28 22:30N 43°58' W 009°14'4314.4
2015-Jun-28 19:31N 43°20' W 009°40'1413.9
2015-Jun-28 18:32N 43°07' W 009°47'1414.0
2015-Jun-28 17:33N 42°53' W 009°48'1413.8
2015-Jun-28 16:33N 42°39' W 009°48'1313.4
2015-Jun-28 15:33N 42°26' W 009°48'1413.8
2015-Jun-28 14:33N 42°12' W 009°48'1413.9
2015-Jun-28 13:33N 41°58' W 009°48'1414.1
2015-Jun-28 12:33N 41°44' W 009°49'1414.3
2015-Jun-28 11:34N 41°30' W 009°49'1414.3
2015-Jun-28 10:33N 41°16' W 009°49'1414.0
2015-Jun-28 09:33N 41°01' W 009°50'1414.1
2015-Jun-28 08:33N 40°47' W 009°50'1414.0
2015-Jun-28 07:33N 40°33' W 009°50'1514.8
2015-Jun-28 06:33N 40°19' W 009°51'1414.4
2015-Jun-28 05:33N 40°04' W 009°51'1414.1
2015-Jun-28 04:33N 39°50' W 009°50'1413.6
2015-Jun-28 03:33N 39°36' W 009°50'1514.4
2015-Jun-28 02:33N 39°22' W 009°51'1414.2
2015-Jun-28 01:33N 39°08' W 009°51'1414.1
2015-Jun-28 00:33N 38°54' W 009°51'1414.1
2015-Jun-27 23:34N 38°40' W 009°50'1413.8
2015-Jun-27 22:33N 38°26' W 009°45'1313.5
2015-Jun-27 21:33N 38°14' W 009°40'1313.3
2015-Jun-27 20:33N 38°01' W 009°36'1313.5
2015-Jun-27 19:34N 37°47' W 009°33'1414.0
2015-Jun-27 18:33N 37°34' W 009°29'1414.1
2015-Jun-27 17:33N 37°20' W 009°26'1414.2
2015-Jun-27 16:34N 37°06' W 009°22'1414.1
2015-Jun-27 15:34N 36°52' W 009°17'1414.2
2015-Jun-27 14:33N 36°43' W 009°04'1414.4
2015-Jun-27 13:33N 36°38' W 008°47'1414.5
2015-Jun-27 12:33N 36°33' W 008°30'1614.6
2015-Jun-27 11:26N 36°28' W 008°11'1415.0
2015-Jun-27 10:32N 36°23' W 007°55'11915.0
2015-Jun-27 02:33N 35°57' W 005°31'  

Dump ship's entire track history